ESSV

Visby Airport

Visby, Sweden
METAR ESSV 151920Z 26012KT 9999 SCT015 BKN024 03/01 Q0991 R21/29//84
Observed Flight Rules
Dec-15 @ 19:20 UTC (31 minutes ago) Marginal Visual Flight Rules
Wind Visibility Clouds
260° at 12 knots 10,000+ meters
  • Scattered at 1,500' AGL
  • Broken at 2,400' AGL
Temperatures Readings
Current 3°C / 37°F
Dewpoint 1°C / 34°F
Humidity 87%
Altimeter 29.26" Hg
Pressure 991 hPa
Elevation 47
METAR ESSV 151920Z 26012KT 9999 SCT015 BKN024 03/01 Q0991 R21/29//84
Observed Flight Rules
Dec-15 @ 19:20 UTC
(31 minutes ago)
MVFR
Wind Visibility
260° at 12 knots 10,000+ meters
Clouds
  • Scattered at 1,500' AGL
  • Broken at 2,400' AGL
Temperature Dewpoint
3°C / 37°F 1°C / 34°F
Humidity Altimeter Pressure
87% 29.26" Hg 991 hPa